createdAt,value
2018-03-14T00:01:43.759Z,100160.44
2018-03-14T00:04:13.266Z,100169.81
2018-03-14T00:06:43.116Z,100167.80
2018-03-14T00:09:12.731Z,100169.13
2018-03-14T00:11:41.942Z,100172.15
2018-03-14T00:14:11.217Z,100167.63
2018-03-14T00:16:40.484Z,100172.27
2018-03-14T00:19:09.583Z,100176.47
2018-03-14T00:21:38.855Z,100177.30
2018-03-14T00:24:07.928Z,100180.65
2018-03-14T00:26:37.598Z,100185.62
2018-03-14T00:29:06.649Z,100186.90
2018-03-14T00:31:36.205Z,100189.63
2018-03-14T00:34:05.982Z,100183.91
2018-03-14T00:36:36.306Z,100188.52
2018-03-14T00:39:07.210Z,100188.41
2018-03-14T00:41:36.555Z,100188.84
2018-03-14T00:44:05.605Z,100191.95
2018-03-14T00:46:35.260Z,100190.80
2018-03-14T00:49:05.317Z,100197.10
2018-03-14T00:51:35.745Z,100196.59
2018-03-14T00:54:04.813Z,100203.31
2018-03-14T00:56:34.178Z,100202.58
2018-03-14T00:59:04.152Z,100206.47
2018-03-14T01:01:33.209Z,100204.84
2018-03-14T01:04:02.261Z,100210.11
2018-03-14T01:06:31.296Z,100209.71
2018-03-14T01:09:00.334Z,100211.44
2018-03-14T01:11:30.587Z,100211.91
2018-03-14T01:13:59.654Z,100209.38
2018-03-14T01:16:29.584Z,100212.03
2018-03-14T01:18:59.777Z,100220.09
2018-03-14T01:21:28.801Z,100221.49
2018-03-14T01:23:59.131Z,100223.31
2018-03-14T01:26:28.291Z,100232.45
2018-03-14T01:28:57.342Z,100233.83
2018-03-14T01:31:26.820Z,100233.09
2018-03-14T01:33:56.384Z,100235.21
2018-03-14T01:36:26.382Z,100233.69
2018-03-14T01:38:55.959Z,100242.19
2018-03-14T01:41:25.127Z,100241.30
2018-03-14T01:43:55.306Z,100239.63
2018-03-14T01:46:24.799Z,100239.28
2018-03-14T01:48:53.841Z,100240.56
2018-03-14T01:51:23.358Z,100246.12
2018-03-14T01:53:54.243Z,100242.72
2018-03-14T01:56:23.987Z,100246.84
2018-03-14T01:58:53.892Z,100246.43
2018-03-14T02:01:23.175Z,100248.53
2018-03-14T02:03:52.568Z,100250.54
2018-03-14T02:06:22.052Z,100256.50
2018-03-14T02:08:51.560Z,100259.14
2018-03-14T02:11:21.054Z,100258.30
2018-03-14T02:13:51.292Z,100262.91
2018-03-14T02:16:21.039Z,100270.84
2018-03-14T02:18:51.202Z,100274.63
2018-03-14T02:21:21.364Z,100273.83
2018-03-14T02:23:50.388Z,100279.30
2018-03-14T02:26:19.530Z,100285.22
2018-03-14T02:28:49.979Z,100280.23
2018-03-14T02:31:19.292Z,100284.92
2018-03-14T02:33:49.724Z,100291.14
2018-03-14T02:36:31.556Z,100292.80
2018-03-14T02:39:01.229Z,100298.77
2018-03-14T02:41:30.325Z,100298.75
2018-03-14T02:44:00.840Z,100302.53
2018-03-14T02:46:30.694Z,100304.63
2018-03-14T02:48:59.884Z,100306.64
2018-03-14T02:51:29.679Z,100307.99
2018-03-14T02:53:58.996Z,100310.08
2018-03-14T02:56:28.016Z,100313.34
2018-03-14T02:58:57.905Z,100323.02
2018-03-14T03:01:27.206Z,100321.44
2018-03-14T03:03:56.241Z,100320.69
2018-03-14T03:06:25.913Z,100329.18
2018-03-14T03:08:56.703Z,100328.34
2018-03-14T03:11:26.158Z,100332.12
2018-03-14T03:13:56.791Z,100330.77
2018-03-14T03:16:27.082Z,100331.80
2018-03-14T03:18:56.177Z,100338.87
2018-03-14T03:21:25.702Z,100343.56
2018-03-14T03:23:54.728Z,100344.20
2018-03-14T03:26:24.194Z,100344.41
2018-03-14T03:28:54.463Z,100351.01
2018-03-14T03:31:23.481Z,100349.59
2018-03-14T03:33:53.571Z,100352.66
2018-03-14T03:36:23.372Z,100360.45
2018-03-14T03:38:52.578Z,100365.30
2018-03-14T03:41:22.589Z,100367.91
2018-03-14T03:43:51.924Z,100370.08
2018-03-14T03:46:21.832Z,100379.22
2018-03-14T03:48:50.848Z,100376.34
2018-03-14T03:51:20.076Z,100381.33
2018-03-14T03:53:49.220Z,100387.24
2018-03-14T03:56:18.233Z,100382.98
2018-03-14T03:58:47.369Z,100390.50
2018-03-14T04:01:17.009Z,100397.56
2018-03-14T04:03:47.573Z,100404.77
2018-03-14T04:06:17.697Z,100407.73
2018-03-14T04:08:47.807Z,100404.86
2018-03-14T04:11:16.841Z,100411.23
2018-03-14T04:13:47.490Z,100414.69
2018-03-14T04:16:16.585Z,100421.89
2018-03-14T04:18:46.115Z,100420.66
2018-03-14T04:21:15.740Z,100421.59
2018-03-14T04:23:45.027Z,100421.66
2018-03-14T04:26:14.729Z,100422.52
2018-03-14T04:28:44.451Z,100422.57
2018-03-14T04:31:13.524Z,100430.98
2018-03-14T04:33:42.953Z,100432.22
2018-03-14T04:36:12.030Z,100436.91
2018-03-14T04:38:41.107Z,100441.11
2018-03-14T04:41:11.643Z,100439.87
2018-03-14T04:43:40.765Z,100438.61
2018-03-14T04:46:10.837Z,100449.51
2018-03-14T04:48:39.967Z,100447.91
2018-03-14T04:51:10.657Z,100449.48
2018-03-14T04:53:39.785Z,100456.53
2018-03-14T04:56:09.594Z,100455.68
2018-03-14T04:58:38.608Z,100458.61
2018-03-14T05:01:08.502Z,100461.48
2018-03-14T05:03:37.907Z,100466.48
2018-03-14T05:06:07.195Z,100471.87
2018-03-14T05:08:37.668Z,100474.73
2018-03-14T05:11:06.770Z,100472.98
2018-03-14T05:13:36.035Z,100475.80
2018-03-14T05:16:05.380Z,100483.34
2018-03-14T05:18:34.397Z,100483.78
2018-03-14T05:21:03.784Z,100484.77
2018-03-14T05:23:32.800Z,100489.61
2018-03-14T05:26:02.641Z,100493.48
2018-03-14T05:28:31.710Z,100498.09
2018-03-14T05:31:00.768Z,100504.41
2018-03-14T05:33:30.189Z,100506.82
2018-03-14T05:36:00.010Z,100513.12
2018-03-14T05:38:29.073Z,100511.03
2018-03-14T05:40:58.296Z,100514.02
2018-03-14T05:43:28.296Z,100523.66
2018-03-14T05:45:58.329Z,100527.09
2018-03-14T05:48:27.394Z,100529.27
2018-03-14T05:50:56.458Z,100529.78
2018-03-14T05:53:26.467Z,100536.55
2018-03-14T05:55:55.496Z,100533.17
2018-03-14T05:58:24.617Z,100534.46
2018-03-14T06:00:53.950Z,100540.45
2018-03-14T06:03:23.445Z,100542.93
2018-03-14T06:05:52.535Z,100550.37
2018-03-14T06:08:22.086Z,100560.36
2018-03-14T06:10:51.447Z,100561.55
2018-03-14T06:13:21.401Z,100565.65
2018-03-14T06:15:50.595Z,100567.66
2018-03-14T06:18:20.428Z,100571.84
2018-03-14T06:20:49.621Z,100571.34
2018-03-14T06:23:19.655Z,100577.97
2018-03-14T06:25:48.847Z,100577.88
2018-03-14T06:28:18.758Z,100581.61
2018-03-14T06:30:48.131Z,100588.66
2018-03-14T06:33:18.475Z,100597.43
2018-03-14T06:35:48.457Z,100594.76
2018-03-14T06:38:17.897Z,100605.22
2018-03-14T06:40:46.937Z,100600.20
2018-03-14T06:43:16.036Z,100610.48
2018-03-14T06:45:45.568Z,100612.45
2018-03-14T06:48:15.700Z,100614.49
2018-03-14T06:50:44.816Z,100623.28
2018-03-14T06:53:13.856Z,100626.63
2018-03-14T06:55:43.187Z,100631.91
2018-03-14T06:58:12.221Z,100634.48
2018-03-14T07:00:53.149Z,100643.80
2018-03-14T07:03:33.826Z,100638.02
2018-03-14T07:06:10.652Z,100651.15
2018-03-14T07:08:39.709Z,100648.22
2018-03-14T07:11:08.742Z,100651.09
2018-03-14T07:13:38.345Z,100653.87
2018-03-14T07:16:07.376Z,100658.83
2018-03-14T07:18:36.850Z,100668.03
2018-03-14T07:21:06.075Z,100670.89
2018-03-14T07:23:35.494Z,100676.72
2018-03-14T07:26:05.120Z,100679.62
2018-03-14T07:28:35.492Z,100692.64
2018-03-14T07:31:04.528Z,100689.77
2018-03-14T07:33:33.820Z,100694.45
2018-03-14T07:36:02.846Z,100699.94
2018-03-14T07:38:31.889Z,100698.32
2018-03-14T07:41:01.393Z,100704.66
2018-03-14T07:43:32.191Z,100704.61
2018-03-14T07:46:01.274Z,100715.02
2018-03-14T07:48:31.410Z,100717.02
2018-03-14T07:51:01.662Z,100714.98
2018-03-14T07:53:30.973Z,100720.79
2018-03-14T07:56:00.313Z,100716.13
2018-03-14T07:58:29.728Z,100722.48
2018-03-14T08:00:58.853Z,100723.81
2018-03-14T08:03:28.043Z,100727.45
2018-03-14T08:05:57.298Z,100739.52
2018-03-14T08:08:26.328Z,100739.80
2018-03-14T08:10:56.006Z,100749.85
2018-03-14T08:13:26.134Z,100752.92
2018-03-14T08:15:55.190Z,100755.20
2018-03-14T08:18:25.126Z,100767.20
2018-03-14T08:20:54.177Z,100770.78
2018-03-14T08:23:23.512Z,100773.91
2018-03-14T08:25:52.902Z,100780.24
2018-03-14T08:28:23.085Z,100779.95
2018-03-14T08:30:52.830Z,100782.59
2018-03-14T08:33:21.926Z,100781.82
2018-03-14T08:35:52.314Z,100782.66
2018-03-14T08:38:22.195Z,100791.47
2018-03-14T08:40:51.285Z,100793.56
2018-03-14T08:43:21.200Z,100796.55
2018-03-14T08:45:50.241Z,100801.57
2018-03-14T08:48:20.949Z,100798.17
2018-03-14T08:50:50.074Z,100803.13
2018-03-14T08:53:23.865Z,100810.55
2018-03-14T08:55:53.495Z,100823.05
2018-03-14T08:58:23.120Z,100824.67
2018-03-14T09:00:52.424Z,100825.03
2018-03-14T09:03:22.868Z,100829.16
2018-03-14T09:05:53.609Z,100836.28
2018-03-14T09:08:22.936Z,100835.06
2018-03-14T09:10:52.030Z,100837.05
2018-03-14T09:13:22.059Z,100842.48
2018-03-14T09:15:52.467Z,100845.44
2018-03-14T09:18:21.962Z,100847.18
2018-03-14T09:20:51.135Z,100849.81
2018-03-14T09:23:20.401Z,100854.48
2018-03-14T09:25:49.988Z,100854.07
2018-03-14T09:28:19.643Z,100860.00
2018-03-14T09:30:50.336Z,100863.03
2018-03-14T09:33:19.456Z,100862.73
2018-03-14T09:35:48.508Z,100864.41
2018-03-14T09:38:18.272Z,100867.66
2018-03-14T09:40:49.931Z,100873.39
2018-03-14T09:43:19.481Z,100879.20
2018-03-14T09:45:49.783Z,100879.98
2018-03-14T09:48:20.076Z,100875.80
2018-03-14T09:50:49.487Z,100885.53
2018-03-14T09:53:18.887Z,100886.80
2018-03-14T09:55:48.184Z,100892.25
2018-03-14T09:58:17.581Z,100895.17
2018-03-14T10:00:47.384Z,100894.27
2018-03-14T10:03:16.439Z,100897.92
2018-03-14T10:05:45.499Z,100905.84
2018-03-14T10:08:15.067Z,100903.31
2018-03-14T10:10:45.184Z,100908.83
2018-03-14T10:13:14.524Z,100906.27
2018-03-14T10:15:43.980Z,100912.06
2018-03-14T10:18:13.066Z,100919.63
2018-03-14T10:20:43.170Z,100919.20
2018-03-14T10:23:13.235Z,100914.59
2018-03-14T10:25:43.226Z,100920.91
2018-03-14T10:28:12.193Z,100921.17
2018-03-14T10:30:41.233Z,100928.05
2018-03-14T10:33:10.272Z,100927.31
2018-03-14T10:35:39.298Z,100932.09
2018-03-14T10:38:08.901Z,100934.81
2018-03-14T10:40:38.497Z,100931.39
2018-03-14T10:43:08.369Z,100936.16
2018-03-14T10:45:37.451Z,100938.38
2018-03-14T10:48:07.693Z,100943.54
2018-03-14T10:50:37.117Z,100943.91
2018-03-14T10:53:07.200Z,100943.41
2018-03-14T10:55:36.662Z,100947.55
2018-03-14T10:58:05.950Z,100947.14
2018-03-14T11:00:41.198Z,100945.86
2018-03-14T11:06:12.281Z,100955.04
2018-03-14T11:08:41.566Z,100954.31
2018-03-14T11:11:10.906Z,100956.08
2018-03-14T11:13:40.753Z,100961.09
2018-03-14T11:16:10.451Z,100960.50
2018-03-14T11:18:39.490Z,100965.06
2018-03-14T11:21:10.357Z,100967.21
2018-03-14T11:23:39.770Z,100967.70
2018-03-14T11:26:09.241Z,100976.61
2018-03-14T11:28:39.067Z,100968.22
2018-03-14T11:31:08.520Z,100973.57
2018-03-14T11:33:38.746Z,100979.43
2018-03-14T11:36:08.390Z,100975.97
2018-03-14T11:38:37.593Z,100983.31
2018-03-14T11:41:06.736Z,100983.27
2018-03-14T11:43:37.367Z,100985.95
2018-03-14T11:46:08.048Z,100986.49
2018-03-14T11:48:37.805Z,100987.39
2018-03-14T11:51:07.706Z,100987.89
2018-03-14T11:53:36.820Z,100996.69
2018-03-14T11:56:05.866Z,100996.16
2018-03-14T11:58:35.125Z,100991.06
2018-03-14T12:01:04.254Z,100994.71
2018-03-14T12:03:33.687Z,101000.93
2018-03-14T12:06:03.197Z,100999.73
2018-03-14T12:08:33.242Z,101003.99
2018-03-14T12:11:03.751Z,101012.86
2018-03-14T12:13:32.862Z,101001.47
2018-03-14T12:16:01.908Z,101015.02
2018-03-14T12:18:32.071Z,101014.25
2018-03-14T12:21:01.701Z,101014.41
2018-03-14T12:23:30.726Z,101014.94
2018-03-14T12:25:59.766Z,101013.75
2018-03-14T12:28:29.214Z,101013.42
2018-03-14T12:30:59.499Z,101019.30
2018-03-14T12:33:30.315Z,101017.10
2018-03-14T12:35:59.602Z,101026.38
2018-03-14T12:38:28.859Z,101019.98
2018-03-14T12:41:00.139Z,101025.84
2018-03-14T12:43:29.454Z,101028.78
2018-03-14T12:45:59.083Z,101031.72
2018-03-14T12:48:29.053Z,101030.41
2018-03-14T12:50:59.595Z,101032.50
2018-03-14T12:53:28.624Z,101035.37
2018-03-14T12:55:58.142Z,101038.15
2018-03-14T12:58:27.186Z,101042.80
2018-03-14T13:00:56.285Z,101047.37
2018-03-14T13:03:26.573Z,101044.86
2018-03-14T13:05:56.470Z,101052.35
2018-03-14T13:08:27.634Z,101046.94
2018-03-14T13:10:57.170Z,101058.22
2018-03-14T13:13:26.470Z,101059.95
2018-03-14T13:15:55.918Z,101062.45
2018-03-14T13:18:25.255Z,101065.34
2018-03-14T13:20:54.555Z,101064.92
2018-03-14T13:23:24.802Z,101067.86
2018-03-14T13:25:54.067Z,101070.79
2018-03-14T13:28:24.123Z,101080.02
2018-03-14T13:30:53.655Z,101084.27
2018-03-14T13:33:23.194Z,101093.12
2018-03-14T13:35:52.260Z,101092.34
2018-03-14T13:38:21.558Z,101095.27
2018-03-14T13:40:51.098Z,101089.77
2018-03-14T13:43:20.203Z,101090.09
2018-03-14T13:45:49.249Z,101086.67
2018-03-14T13:48:19.040Z,101096.64
2018-03-14T13:50:48.432Z,101095.44
2018-03-14T13:53:17.786Z,101100.11
2018-03-14T13:55:47.544Z,101095.97
2018-03-14T13:58:16.873Z,101104.02
2018-03-14T14:00:46.082Z,101108.59
2018-03-14T14:03:16.435Z,101107.74
2018-03-14T14:08:26.466Z,101111.16
2018-03-14T14:10:56.347Z,101112.05
2018-03-14T14:13:28.398Z,101117.55
2018-03-14T14:15:58.363Z,101114.16
2018-03-14T14:18:28.164Z,101117.92
2018-03-14T14:20:57.571Z,101119.97
2018-03-14T14:23:26.631Z,101120.85
2018-03-14T14:25:55.691Z,101126.03
2018-03-14T14:28:25.067Z,101119.80
2018-03-14T14:30:54.455Z,101123.25
2018-03-14T14:33:23.491Z,101127.95
2018-03-14T14:35:53.394Z,101132.23
2018-03-14T14:38:22.433Z,101134.33
2018-03-14T14:40:55.131Z,101133.03
2018-03-14T14:43:24.569Z,101131.41
2018-03-14T14:45:53.652Z,101139.41
2018-03-14T14:48:22.709Z,101141.09
2018-03-14T14:50:52.171Z,101140.30
2018-03-14T14:53:21.567Z,101144.19
2018-03-14T14:55:51.490Z,101144.61
2018-03-14T14:58:20.526Z,101150.43
2018-03-14T15:00:49.573Z,101154.20
2018-03-14T15:03:18.779Z,101152.52
2018-03-14T15:05:47.821Z,101154.12
2018-03-14T15:08:17.132Z,101155.79
2018-03-14T15:10:46.495Z,101156.21
2018-03-14T15:13:15.538Z,101157.94
2018-03-14T15:15:44.578Z,101161.78
2018-03-14T15:18:13.658Z,101163.46
2018-03-14T15:20:42.842Z,101165.98
2018-03-14T15:23:12.247Z,101160.45
2018-03-14T15:25:42.286Z,101167.94
2018-03-14T15:28:11.705Z,101164.59
2018-03-14T15:30:41.468Z,101162.50
2018-03-14T15:33:10.859Z,101170.88
2018-03-14T15:35:39.962Z,101176.78
2018-03-14T15:38:09.397Z,101174.31
2018-03-14T15:40:38.770Z,101175.16
2018-03-14T15:43:09.294Z,101179.30
2018-03-14T15:45:39.760Z,101179.25
2018-03-14T15:48:09.203Z,101176.74
2018-03-14T15:50:38.421Z,101188.10
2018-03-14T15:53:07.460Z,101189.81
2018-03-14T15:55:36.526Z,101194.05
2018-03-14T15:58:05.581Z,101198.16
2018-03-14T16:03:53.248Z,101202.77
2018-03-14T16:12:34.126Z,101213.36
2018-03-14T16:15:03.179Z,101222.61
2018-03-14T16:17:32.276Z,101228.92
2018-03-14T16:20:01.417Z,101221.46
2018-03-14T16:22:30.476Z,101231.97
2018-03-14T16:24:59.520Z,101234.13
2018-03-14T16:27:28.951Z,101237.96
2018-03-14T16:29:58.422Z,101238.38
2018-03-14T16:32:27.827Z,101239.19
2018-03-14T16:34:57.174Z,101246.27
2018-03-14T16:37:26.224Z,101247.08
2018-03-14T16:39:55.529Z,101249.14
2018-03-14T16:42:24.611Z,101246.66
2018-03-14T16:44:53.643Z,101255.45
2018-03-14T16:47:22.947Z,101255.91
2018-03-14T16:49:52.026Z,101255.91
2018-03-14T16:52:21.049Z,101263.44
2018-03-14T16:54:50.085Z,101264.31
2018-03-14T16:57:19.129Z,101273.58
2018-03-14T16:59:48.192Z,101272.33
2018-03-14T17:02:17.231Z,101283.22
2018-03-14T17:04:48.297Z,101282.34
2018-03-14T17:07:17.425Z,101286.50
2018-03-14T17:09:48.292Z,101284.80
2018-03-14T17:12:17.389Z,101296.52
2018-03-14T17:14:49.810Z,101299.88
2018-03-14T17:17:18.887Z,101303.64
2018-03-14T17:19:48.300Z,101308.25
2018-03-14T17:22:17.454Z,101308.22
2018-03-14T17:24:46.833Z,101310.73
2018-03-14T17:27:15.933Z,101317.88
2018-03-14T17:29:45.015Z,101319.14
2018-03-14T17:32:14.062Z,101320.81
2018-03-14T17:34:43.454Z,101326.23
2018-03-14T17:37:12.509Z,101326.23
2018-03-14T17:39:42.396Z,101327.88
2018-03-14T17:42:11.434Z,101322.42
2018-03-14T17:44:42.267Z,101324.14
2018-03-14T17:47:11.642Z,101327.06
2018-03-14T17:49:41.422Z,101331.64
2018-03-14T17:52:10.721Z,101335.41
2018-03-14T17:54:39.921Z,101333.77
2018-03-14T17:57:09.240Z,101337.56
2018-03-14T17:59:38.290Z,101340.91
2018-03-14T18:02:07.339Z,101338.84
2018-03-14T18:04:36.434Z,101344.73
2018-03-14T18:07:05.768Z,101341.38
2018-03-14T18:09:35.162Z,101344.77
2018-03-14T18:12:05.434Z,101345.57
2018-03-14T18:14:35.143Z,101344.34
2018-03-14T18:17:04.924Z,101343.98
2018-03-14T18:19:34.011Z,101342.30
2018-03-14T18:22:03.247Z,101349.84
2018-03-14T18:24:32.597Z,101351.94
2018-03-14T18:27:02.526Z,101359.86
2018-03-14T18:29:32.445Z,101363.63
2018-03-14T18:32:02.058Z,101362.37
2018-03-14T18:34:31.630Z,101372.00
2018-03-14T18:37:01.153Z,101374.53
2018-03-14T18:39:30.706Z,101370.77
2018-03-14T18:41:59.754Z,101366.16
2018-03-14T18:44:29.141Z,101369.93
2018-03-14T18:46:58.179Z,101363.27
2018-03-14T18:49:27.540Z,101360.33
2018-03-14T18:51:56.574Z,101355.72
2018-03-14T18:54:26.594Z,101356.98
2018-03-14T18:56:55.655Z,101359.91
2018-03-14T18:59:24.968Z,101358.66
2018-03-14T19:01:53.995Z,101362.42
2018-03-14T19:04:23.075Z,101359.07
2018-03-14T19:06:52.376Z,101354.86
2018-03-14T19:09:21.857Z,101356.95
2018-03-14T19:11:50.940Z,101355.72
2018-03-14T19:14:20.028Z,101365.77
2018-03-14T19:16:49.081Z,101365.77
2018-03-14T19:19:18.138Z,101359.93
2018-03-14T19:21:47.954Z,101363.72
2018-03-14T19:24:17.494Z,101363.77
2018-03-14T19:26:46.782Z,101370.48
2018-03-14T19:29:18.222Z,101372.59
2018-03-14T19:31:48.098Z,101368.41
2018-03-14T19:34:19.368Z,101373.03
2018-03-14T19:36:48.726Z,101373.84
2018-03-14T19:39:17.767Z,101377.62
2018-03-14T19:41:46.817Z,101376.42
2018-03-14T19:44:15.889Z,101381.85
2018-03-14T19:46:48.539Z,101380.17
2018-03-14T19:49:17.682Z,101384.81
2018-03-14T19:51:46.750Z,101389.41
2018-03-14T19:54:15.827Z,101385.64
2018-03-14T19:56:45.198Z,101381.48
2018-03-14T19:59:15.578Z,101379.80
2018-03-14T20:01:44.718Z,101392.78
2018-03-14T20:04:13.754Z,101381.94
2018-03-14T20:06:43.143Z,101379.01
2018-03-14T20:09:12.221Z,101376.10
2018-03-14T20:11:42.398Z,101383.61
2018-03-14T20:14:11.443Z,101381.95
2018-03-14T20:16:40.667Z,101381.94
2018-03-14T20:19:09.745Z,101381.95
2018-03-14T20:21:38.783Z,101384.45
2018-03-14T20:24:07.901Z,101380.27
2018-03-14T20:26:36.983Z,101389.88
2018-03-14T20:29:06.431Z,101386.55
2018-03-14T20:31:35.492Z,101391.15
2018-03-14T20:34:04.890Z,101388.63
2018-03-14T20:36:33.921Z,101390.72
2018-03-14T20:39:05.114Z,101393.23
2018-03-14T20:41:34.144Z,101391.58
2018-03-14T20:44:03.191Z,101389.50
2018-03-14T20:46:32.233Z,101390.34
2018-03-14T20:49:01.332Z,101391.18
2018-03-14T20:51:30.436Z,101397.88
2018-03-14T20:53:59.487Z,101396.63
2018-03-14T20:56:28.846Z,101397.03
2018-03-14T20:58:58.249Z,101401.23
2018-03-14T21:01:27.557Z,101397.88
2018-03-14T21:03:56.721Z,101392.86
2018-03-14T21:06:25.768Z,101397.88
2018-03-14T21:08:55.842Z,101399.98
2018-03-14T21:11:24.992Z,101388.25
2018-03-14T21:13:54.033Z,101391.59
2018-03-14T21:16:23.271Z,101394.09
2018-03-14T21:18:52.528Z,101389.09
2018-03-14T21:21:21.592Z,101389.52
2018-03-14T21:23:50.973Z,101389.94
2018-03-14T21:26:20.562Z,101380.30
2018-03-14T21:28:49.901Z,101379.87
2018-03-14T21:31:18.956Z,101387.82
2018-03-14T21:33:48.130Z,101391.17
2018-03-14T21:36:17.272Z,101389.49
2018-03-14T21:38:46.365Z,101393.30
2018-03-14T21:41:15.995Z,101389.94
2018-03-14T21:43:45.070Z,101389.09
2018-03-14T21:46:14.491Z,101389.13
2018-03-14T21:48:43.517Z,101387.05
2018-03-14T21:51:12.581Z,101392.90
2018-03-14T21:53:42.689Z,101389.98
2018-03-14T21:56:15.128Z,101386.23
2018-03-14T21:58:45.569Z,101385.80
2018-03-14T22:01:16.505Z,101383.30
2018-03-14T22:03:46.485Z,101381.63
2018-03-14T22:06:28.420Z,101383.30
2018-03-14T22:09:09.303Z,101389.99
2018-03-14T22:11:39.493Z,101387.47
2018-03-14T22:14:24.468Z,101388.33
2018-03-14T22:16:59.500Z,101392.90
2018-03-14T22:19:31.799Z,101386.25
2018-03-14T22:22:00.894Z,101389.58
2018-03-14T22:24:30.353Z,101386.66
2018-03-14T22:27:00.312Z,101395.02
2018-03-14T22:29:34.027Z,101388.34
2018-03-14T22:32:06.607Z,101393.36
2018-03-14T22:34:35.792Z,101401.72
2018-03-14T22:37:04.862Z,101395.45
2018-03-14T22:39:35.118Z,101396.71
2018-03-14T22:42:04.514Z,101400.48
2018-03-14T22:44:33.609Z,101397.14
2018-03-14T22:47:02.649Z,101406.75
2018-03-14T22:49:32.317Z,101400.50
2018-03-14T22:52:01.689Z,101398.41
2018-03-14T22:54:31.157Z,101407.20
2018-03-14T22:57:00.762Z,101409.70
2018-03-14T22:59:31.461Z,101413.05
2018-03-14T23:02:00.543Z,101415.98
2018-03-14T23:04:30.643Z,101413.91
2018-03-14T23:06:59.688Z,101409.31
2018-03-14T23:09:28.972Z,101405.55
2018-03-14T23:11:58.157Z,101407.22
2018-03-14T23:14:28.112Z,101411.00
2018-03-14T23:16:57.611Z,101411.83
2018-03-14T23:19:26.876Z,101410.56
2018-03-14T23:21:55.929Z,101410.14
2018-03-14T23:24:25.657Z,101405.12
2018-03-14T23:26:54.720Z,101404.31
2018-03-14T23:29:24.577Z,101405.98
2018-03-14T23:31:54.596Z,101407.25
2018-03-14T23:34:23.775Z,101409.74
2018-03-14T23:36:53.580Z,101409.73
2018-03-14T23:39:22.821Z,101412.66
2018-03-14T23:41:52.152Z,101419.77
2018-03-14T23:44:21.228Z,101419.36
2018-03-14T23:46:50.753Z,101411.83
2018-03-14T23:49:20.453Z,101410.56
2018-03-14T23:51:49.789Z,101409.73
2018-03-14T23:54:18.805Z,101421.43
2018-03-14T23:56:54.181Z,101430.20
2018-03-14T23:59:24.476Z,101424.77
